Dobrush, Belarus
Current Conditions -  °F | °C
As of 11:30 AM on Friday 24 Oct 2014 (Local Time) from UMGG Reporting Station
Clear Clear  
Wind Chill: 10°   Ceiling: Unl
Heat Index: 21°   Visibility: 6mi
Dew Point:   Wind: 11mph
Humidity: 54%   Direction: 80°E
Pressure: 30.59"   Gusts: 18mph
Location:  52.42°N, 31.32°E
Report Text: UMGG 240930Z 08005G08MPS CAVOK M06/M14 Q1036 R10/CLRD// NOSIG
Loading
Personal Weather Stations






























Interactive Weather Map
Tropical Storm Tracking
New forecast layout! Learn more

10-Day Weather Forecast

Advertisements
Track Severe Weather on mobile